sensor_id;sensor_type;location;lat;lon;timestamp;pressure;altitude;pressure_sealevel;temperature;humidity
54816;BME280;40715;55.752;37.884;2024-01-30T00:00:28;99983.00;;;30.36;23.24
54816;BME280;40715;55.752;37.884;2024-01-30T00:02:55;99978.72;;;30.33;23.34
54816;BME280;40715;55.752;37.884;2024-01-30T00:05:22;99979.56;;;30.34;23.25
54816;BME280;40715;55.752;37.884;2024-01-30T00:07:50;99981.28;;;30.35;23.47
54816;BME280;40715;55.752;37.884;2024-01-30T00:10:17;99986.56;;;30.36;23.31
54816;BME280;40715;55.752;37.884;2024-01-30T00:12:44;99987.41;;;30.37;23.05
54816;BME280;40715;55.752;37.884;2024-01-30T00:15:11;99988.13;;;30.39;23.16
54816;BME280;40715;55.752;37.884;2024-01-30T00:17:38;99980.97;;;30.38;23.06
54816;BME280;40715;55.752;37.884;2024-01-30T00:20:05;99982.84;;;30.37;23.37
54816;BME280;40715;55.752;37.884;2024-01-30T00:22:32;99982.69;;;30.39;23.11
54816;BME280;40715;55.752;37.884;2024-01-30T00:25:00;99980.13;;;30.37;22.97
54816;BME280;40715;55.752;37.884;2024-01-30T00:27:29;99983.53;;;30.39;23.12
54816;BME280;40715;55.752;37.884;2024-01-30T00:29:56;99975.22;;;30.41;23.15
54816;BME280;40715;55.752;37.884;2024-01-30T00:32:23;99972.50;;;30.41;22.95
54816;BME280;40715;55.752;37.884;2024-01-30T00:34:50;99975.22;;;30.41;22.98
54816;BME280;40715;55.752;37.884;2024-01-30T00:37:17;99976.09;;;30.41;22.83
54816;BME280;40715;55.752;37.884;2024-01-30T00:39:44;99983.38;;;30.41;23.12
54816;BME280;40715;55.752;37.884;2024-01-30T00:42:11;99981.66;;;30.40;22.98
54816;BME280;40715;55.752;37.884;2024-01-30T00:44:38;99974.53;;;30.39;23.12
54816;BME280;40715;55.752;37.884;2024-01-30T00:47:06;99967.38;;;30.38;23.17
54816;BME280;40715;55.752;37.884;2024-01-30T00:49:33;99967.22;;;30.39;23.13
54816;BME280;40715;55.752;37.884;2024-01-30T00:52:00;99968.06;;;30.40;23.25
54816;BME280;40715;55.752;37.884;2024-01-30T00:54:27;99972.66;;;30.39;23.24
54816;BME280;40715;55.752;37.884;2024-01-30T00:56:54;99958.06;;;30.40;22.80
54816;BME280;40715;55.752;37.884;2024-01-30T00:59:21;99963.66;;;30.39;23.07
54816;BME280;40715;55.752;37.884;2024-01-30T01:01:48;99951.06;;;30.38;22.98
54816;BME280;40715;55.752;37.884;2024-01-30T01:04:15;99959.38;;;30.36;23.32
54816;BME280;40715;55.752;37.884;2024-01-30T01:06:43;99958.22;;;30.39;22.91
54816;BME280;40715;55.752;37.884;2024-01-30T01:09:11;99957.50;;;30.37;22.99
54816;BME280;40715;55.752;37.884;2024-01-30T01:11:39;99954.78;;;30.37;23.12
54816;BME280;40715;55.752;37.884;2024-01-30T01:14:06;99952.78;;;30.39;23.38
54816;BME280;40715;55.752;37.884;2024-01-30T01:16:33;99944.78;;;30.37;23.24
54816;BME280;40715;55.752;37.884;2024-01-30T01:19:01;99952.78;;;30.39;23.13
54816;BME280;40715;55.752;37.884;2024-01-30T01:21:28;99935.94;;;30.35;23.26
54816;BME280;40715;55.752;37.884;2024-01-30T01:23:55;99939.19;;;30.39;23.05
54816;BME280;40715;55.752;37.884;2024-01-30T01:26:22;99948.91;;;30.41;22.92
54816;BME280;40715;55.752;37.884;2024-01-30T01:28:49;99938.03;;;30.41;22.92
54816;BME280;40715;55.752;37.884;2024-01-30T01:31:16;99938.03;;;30.41;23.13
54816;BME280;40715;55.752;37.884;2024-01-30T01:33:44;99929.00;;;30.41;22.93
54816;BME280;40715;55.752;37.884;2024-01-30T01:36:13;99928.34;;;30.39;23.03
54816;BME280;40715;55.752;37.884;2024-01-30T01:38:40;99942.47;;;30.42;23.02
54816;BME280;40715;55.752;37.884;2024-01-30T01:41:07;99931.44;;;30.44;23.30
54816;BME280;40715;55.752;37.884;2024-01-30T01:43:34;99928.72;;;30.44;23.11
54816;BME280;40715;55.752;37.884;2024-01-30T01:46:01;99911.16;;;30.38;22.85
54816;BME280;40715;55.752;37.884;2024-01-30T01:48:28;99904.97;;;30.46;23.18
54816;BME280;40715;55.752;37.884;2024-01-30T01:50:56;99919.56;;;30.45;23.08
54816;BME280;40715;55.752;37.884;2024-01-30T01:53:24;99914.13;;;30.45;23.31
54816;BME280;40715;55.752;37.884;2024-01-30T01:55:51;99926.72;;;30.46;22.83
54816;BME280;40715;55.752;37.884;2024-01-30T01:58:21;99928.56;;;30.45;22.76
54816;BME280;40715;55.752;37.884;2024-01-30T02:00:49;99916.53;;;30.48;22.87
54816;BME280;40715;55.752;37.884;2024-01-30T02:03:18;99925.56;;;30.49;22.70
54816;BME280;40715;55.752;37.884;2024-01-30T02:05:50;99924.69;;;30.48;22.89
54816;BME280;40715;55.752;37.884;2024-01-30T02:08:17;99930.84;;;30.50;22.96
54816;BME280;40715;55.752;37.884;2024-01-30T02:10:44;99913.66;;;30.50;22.97
54816;BME280;40715;55.752;37.884;2024-01-30T02:13:12;99913.66;;;30.50;22.96
54816;BME280;40715;55.752;37.884;2024-01-30T02:15:39;99908.94;;;30.52;22.76
54816;BME280;40715;55.752;37.884;2024-01-30T02:18:06;99916.38;;;30.50;22.83
54816;BME280;40715;55.752;37.884;2024-01-30T02:20:56;99905.19;;;30.53;22.54
54816;BME280;40715;55.752;37.884;2024-01-30T02:23:24;99920.97;;;30.49;22.54
54816;BME280;40715;55.752;37.884;2024-01-30T02:25:52;99919.09;;;30.50;22.90
54816;BME280;40715;55.752;37.884;2024-01-30T02:28:20;99920.81;;;30.51;22.55
54816;BME280;40715;55.752;37.884;2024-01-30T02:30:47;99911.97;;;30.49;22.76
54816;BME280;40715;55.752;37.884;2024-01-30T02:33:14;99916.22;;;30.51;22.51
54816;BME280;40715;55.752;37.884;2024-01-30T02:35:41;99900.06;;;30.50;22.75
54816;BME280;40715;55.752;37.884;2024-01-30T02:38:08;99904.66;;;30.49;22.71
54816;BME280;40715;55.752;37.884;2024-01-30T02:40:35;99905.34;;;30.51;22.51
54816;BME280;40715;55.752;37.884;2024-01-30T02:43:03;99908.03;;;30.43;22.95
54816;BME280;40715;55.752;37.884;2024-01-30T02:45:30;99909.25;;;30.49;22.59
54816;BME280;40715;55.752;37.884;2024-01-30T02:47:57;99904.66;;;30.49;22.95
54816;BME280;40715;55.752;37.884;2024-01-30T02:50:24;99898.06;;;30.52;22.64
54816;BME280;40715;55.752;37.884;2024-01-30T02:52:51;99901.94;;;30.49;22.58
54816;BME280;40715;55.752;37.884;2024-01-30T02:55:17;99895.34;;;30.52;22.57
54816;BME280;40715;55.752;37.884;2024-01-30T02:57:45;99900.94;;;30.50;22.54
54816;BME280;40715;55.752;37.884;2024-01-30T03:00:12;99899.22;;;30.49;22.38
54816;BME280;40715;55.752;37.884;2024-01-30T03:02:39;99900.78;;;30.52;22.79
54816;BME280;40715;55.752;37.884;2024-01-30T03:05:07;99916.06;;;30.53;22.46
54816;BME280;40715;55.752;37.884;2024-01-30T03:07:35;99919.97;;;30.50;22.68
54816;BME280;40715;55.752;37.884;2024-01-30T03:10:02;99926.41;;;30.49;22.80
54816;BME280;40715;55.752;37.884;2024-01-30T03:12:29;99934.97;;;30.54;22.78
54816;BME280;40715;55.752;37.884;2024-01-30T03:14:56;99930.38;;;30.55;23.07
54816;BME280;40715;55.752;37.884;2024-01-30T03:17:23;99933.94;;;30.55;22.88
54816;BME280;40715;55.752;37.884;2024-01-30T03:19:51;99937.69;;;30.54;23.17
54816;BME280;40715;55.752;37.884;2024-01-30T03:22:18;99943.25;;;30.53;22.94
54816;BME280;40715;55.752;37.884;2024-01-30T03:24:45;99954.00;;;30.54;22.88
54816;BME280;40715;55.752;37.884;2024-01-30T03:27:12;99943.13;;;30.54;22.94
54816;BME280;40715;55.752;37.884;2024-01-30T03:29:39;99950.25;;;30.55;23.12
54816;BME280;40715;55.752;37.884;2024-01-30T03:32:06;99943.56;;;30.50;23.28
54816;BME280;40715;55.752;37.884;2024-01-30T03:34:32;99948.56;;;30.54;23.20
54816;BME280;40715;55.752;37.884;2024-01-30T03:37:00;99957.56;;;30.55;23.15
54816;BME280;40715;55.752;37.884;2024-01-30T03:39:26;99952.97;;;30.55;22.96
54816;BME280;40715;55.752;37.884;2024-01-30T03:41:53;99948.69;;;30.53;22.92
54816;BME280;40715;55.752;37.884;2024-01-30T03:44:20;99937.69;;;30.54;22.88
54816;BME280;40715;55.752;37.884;2024-01-30T03:46:47;99937.81;;;30.53;23.40
54816;BME280;40715;55.752;37.884;2024-01-30T03:49:14;99932.69;;;30.50;22.94
54816;BME280;40715;55.752;37.884;2024-01-30T03:51:41;99945.69;;;30.56;23.32
54816;BME280;40715;55.752;37.884;2024-01-30T03:54:08;99952.13;;;30.55;23.02
54816;BME280;40715;55.752;37.884;2024-01-30T03:56:36;99941.25;;;30.55;22.99
54816;BME280;40715;55.752;37.884;2024-01-30T03:59:03;99937.69;;;30.54;23.32
54816;BME280;40715;55.752;37.884;2024-01-30T04:01:30;99960.28;;;30.55;23.17
54816;BME280;40715;55.752;37.884;2024-01-30T04:03:57;99962.84;;;30.56;22.98
54816;BME280;40715;55.752;37.884;2024-01-30T04:06:24;99961.84;;;30.57;23.28
54816;BME280;40715;55.752;37.884;2024-01-30T04:08:51;99962.84;;;30.56;23.34
54816;BME280;40715;55.752;37.884;2024-01-30T04:11:18;99959.44;;;30.54;23.28
54816;BME280;40715;55.752;37.884;2024-01-30T04:13:46;99959.81;;;30.59;23.36
54816;BME280;40715;55.752;37.884;2024-01-30T04:16:21;99963.41;;;30.60;23.55
54816;BME280;40715;55.752;37.884;2024-01-30T04:18:49;99960.97;;;30.57;23.14
54816;BME280;40715;55.752;37.884;2024-01-30T04:21:16;99960.69;;;30.60;23.12
54816;BME280;40715;55.752;37.884;2024-01-30T04:23:43;99956.41;;;30.57;23.00
54816;BME280;40715;55.752;37.884;2024-01-30T04:26:10;99958.09;;;30.58;23.03
54816;BME280;40715;55.752;37.884;2024-01-30T04:28:37;99976.13;;;30.59;23.30
54816;BME280;40715;55.752;37.884;2024-01-30T04:31:04;99958.66;;;30.62;23.37
54816;BME280;40715;55.752;37.884;2024-01-30T04:33:31;99958.97;;;30.59;23.03
54816;BME280;40715;55.752;37.884;2024-01-30T04:35:58;99952.66;;;30.58;23.36
54816;BME280;40715;55.752;37.884;2024-01-30T04:38:25;99945.22;;;30.60;23.13
54816;BME280;40715;55.752;37.884;2024-01-30T04:40:52;99946.06;;;30.61;23.04
54816;BME280;40715;55.752;37.884;2024-01-30T04:43:19;99960.69;;;30.60;23.03
54816;BME280;40715;55.752;37.884;2024-01-30T04:45:46;99966.13;;;30.60;23.17
54816;BME280;40715;55.752;37.884;2024-01-30T04:48:13;99961.53;;;30.60;23.16
54816;BME280;40715;55.752;37.884;2024-01-30T04:50:40;99961.53;;;30.60;23.29
54816;BME280;40715;55.752;37.884;2024-01-30T04:53:07;99972.56;;;30.59;23.10
54816;BME280;40715;55.752;37.884;2024-01-30T04:55:35;99957.41;;;30.56;22.83
54816;BME280;40715;55.752;37.884;2024-01-30T04:58:03;99972.72;;;30.57;22.99
54816;BME280;40715;55.752;37.884;2024-01-30T05:00:30;99958.09;;;30.58;23.27
54816;BME280;40715;55.752;37.884;2024-01-30T05:02:57;99955.53;;;30.57;23.13
54816;BME280;40715;55.752;37.884;2024-01-30T05:05:24;99966.13;;;30.60;23.30
54816;BME280;40715;55.752;37.884;2024-01-30T05:07:51;99948.94;;;30.59;23.06
54816;BME280;40715;55.752;37.884;2024-01-30T05:10:18;99957.81;;;30.61;23.17
54816;BME280;40715;55.752;37.884;2024-01-30T05:12:45;99957.25;;;30.58;23.24
54816;BME280;40715;55.752;37.884;2024-01-30T05:15:12;99951.50;;;30.61;23.18
54816;BME280;40715;55.752;37.884;2024-01-30T05:17:39;99970.84;;;30.58;23.19
54816;BME280;40715;55.752;37.884;2024-01-30T05:20:06;99955.53;;;30.57;23.17
54816;BME280;40715;55.752;37.884;2024-01-30T05:22:34;99965.25;;;30.59;22.83
54816;BME280;40715;55.752;37.884;2024-01-30T05:25:01;99989.56;;;30.61;23.11
54816;BME280;40715;55.752;37.884;2024-01-30T05:27:29;99985.28;;;30.58;22.75
54816;BME280;40715;55.752;37.884;2024-01-30T05:29:56;99987.00;;;30.59;23.24
54816;BME280;40715;55.752;37.884;2024-01-30T05:32:23;99991.59;;;30.59;22.74
54816;BME280;40715;55.752;37.884;2024-01-30T05:34:50;99990.72;;;30.58;22.97
54816;BME280;40715;55.752;37.884;2024-01-30T05:37:17;99980.56;;;30.60;23.07
54816;BME280;40715;55.752;37.884;2024-01-30T05:39:44;99982.28;;;30.61;23.06
54816;BME280;40715;55.752;37.884;2024-01-30T05:42:11;99976.69;;;30.63;22.53
54816;BME280;40715;55.752;37.884;2024-01-30T05:44:38;99980.25;;;30.63;22.67
54816;BME280;40715;55.752;37.884;2024-01-30T05:47:05;99978.38;;;30.64;23.05
54816;BME280;40715;55.752;37.884;2024-01-30T05:49:32;99985.53;;;30.65;23.56
54816;BME280;40715;55.752;37.884;2024-01-30T05:51:59;99990.81;;;30.67;23.53
54816;BME280;40715;55.752;37.884;2024-01-30T05:54:26;99995.41;;;30.66;24.26
54816;BME280;40715;55.752;37.884;2024-01-30T05:56:53;99992.28;;;30.61;24.68
54816;BME280;40715;55.752;37.884;2024-01-30T05:59:20;99996.78;;;30.70;24.65
54816;BME280;40715;55.752;37.884;2024-01-30T06:01:48;100001.34;;;30.70;25.05
54816;BME280;40715;55.752;37.884;2024-01-30T06:04:15;99987.91;;;30.68;24.90
54816;BME280;40715;55.752;37.884;2024-01-30T06:06:42;99984.03;;;30.71;25.18
54816;BME280;40715;55.752;37.884;2024-01-30T06:09:09;99995.47;;;30.74;25.38
54816;BME280;40715;55.752;37.884;2024-01-30T06:11:36;100000.19;;;30.72;25.56
54816;BME280;40715;55.752;37.884;2024-01-30T06:14:03;99994.91;;;30.71;25.27
54816;BME280;40715;55.752;37.884;2024-01-30T06:16:30;100005.63;;;30.72;25.75
54816;BME280;40715;55.752;37.884;2024-01-30T06:18:57;100020.13;;;30.73;25.70
54816;BME280;40715;55.752;37.884;2024-01-30T06:21:24;100002.22;;;30.70;25.92
54816;BME280;40715;55.752;37.884;2024-01-30T06:23:51;100012.06;;;30.71;25.44
54816;BME280;40715;55.752;37.884;2024-01-30T06:26:18;100004.06;;;30.70;25.83
54816;BME280;40715;55.752;37.884;2024-01-30T06:28:45;100010.22;;;30.72;25.53
54816;BME280;40715;55.752;37.884;2024-01-30T06:31:12;100016.50;;;30.72;25.89
54816;BME280;40715;55.752;37.884;2024-01-30T06:33:39;100017.22;;;30.74;25.78
54816;BME280;40715;55.752;37.884;2024-01-30T06:36:09;100025.56;;;30.73;25.57
54816;BME280;40715;55.752;37.884;2024-01-30T06:38:36;100032.84;;;30.72;25.75
54816;BME280;40715;55.752;37.884;2024-01-30T06:41:03;100032.00;;;30.72;25.61
54816;BME280;40715;55.752;37.884;2024-01-30T06:43:30;100031.84;;;30.73;25.46
54816;BME280;40715;55.752;37.884;2024-01-30T06:45:57;100024.69;;;30.72;25.63
54816;BME280;40715;55.752;37.884;2024-01-30T06:48:24;100026.06;;;30.76;25.63
54816;BME280;40715;55.752;37.884;2024-01-30T06:50:54;100028.13;;;30.74;25.58
54816;BME280;40715;55.752;37.884;2024-01-30T06:53:21;100026.91;;;30.77;25.36
54816;BME280;40715;55.752;37.884;2024-01-30T06:55:48;100016.34;;;30.74;25.41
54816;BME280;40715;55.752;37.884;2024-01-30T06:58:15;100019.78;;;30.76;25.70
54816;BME280;40715;55.752;37.884;2024-01-30T07:00:42;100018.91;;;30.75;25.63
54816;BME280;40715;55.752;37.884;2024-01-30T07:03:09;100022.34;;;30.77;25.20
54816;BME280;40715;55.752;37.884;2024-01-30T07:05:36;100031.53;;;30.76;25.29
54816;BME280;40715;55.752;37.884;2024-01-30T07:08:03;100021.63;;;30.75;25.63
54816;BME280;40715;55.752;37.884;2024-01-30T07:10:30;100030.69;;;30.76;25.32
54816;BME280;40715;55.752;37.884;2024-01-30T07:12:58;100030.69;;;30.76;25.43
54816;BME280;40715;55.752;37.884;2024-01-30T07:15:27;100040.41;;;30.78;25.22
54816;BME280;40715;55.752;37.884;2024-01-30T07:17:53;100037.81;;;30.77;25.55
54816;BME280;40715;55.752;37.884;2024-01-30T07:20:20;100042.25;;;30.78;25.33
54816;BME280;40715;55.752;37.884;2024-01-30T07:22:48;100054.69;;;30.80;25.13
54816;BME280;40715;55.752;37.884;2024-01-30T07:25:15;100053.84;;;30.80;25.07
54816;BME280;40715;55.752;37.884;2024-01-30T07:27:43;100050.97;;;30.81;25.04
54816;BME280;40715;55.752;37.884;2024-01-30T07:30:10;100050.25;;;30.79;24.93
54816;BME280;40715;55.752;37.884;2024-01-30T07:32:37;100052.13;;;30.79;25.16
54816;BME280;40715;55.752;37.884;2024-01-30T07:35:04;100058.56;;;30.78;24.96
54816;BME280;40715;55.752;37.884;2024-01-30T07:37:33;100059.56;;;30.77;25.13
54816;BME280;40715;55.752;37.884;2024-01-30T07:40:01;100058.72;;;30.76;24.84
54816;BME280;40715;55.752;37.884;2024-01-30T07:42:30;100058.56;;;30.78;24.74
54816;BME280;40715;55.752;37.884;2024-01-30T07:44:57;100058.72;;;30.76;25.16
54816;BME280;40715;55.752;37.884;2024-01-30T07:47:24;100062.00;;;30.80;25.10
54816;BME280;40715;55.752;37.884;2024-01-30T07:49:51;100059.13;;;30.81;25.14
54816;BME280;40715;55.752;37.884;2024-01-30T07:52:18;100057.56;;;30.79;24.32
54816;BME280;40715;55.752;37.884;2024-01-30T07:54:45;100056.41;;;30.81;24.61
54816;BME280;40715;55.752;37.884;2024-01-30T07:57:12;100051.28;;;30.78;24.44
54816;BME280;40715;55.752;37.884;2024-01-30T07:59:43;100045.38;;;30.83;24.27
54816;BME280;40715;55.752;37.884;2024-01-30T08:02:14;100047.19;;;30.83;24.76
54816;BME280;40715;55.752;37.884;2024-01-30T08:04:41;100053.38;;;30.85;24.28
54816;BME280;40715;55.752;37.884;2024-01-30T08:07:08;100050.47;;;30.86;24.73
54816;BME280;40715;55.752;37.884;2024-01-30T08:09:35;100064.25;;;30.85;24.44
54816;BME280;40715;55.752;37.884;2024-01-30T08:12:03;100062.22;;;30.87;24.67
54816;BME280;40715;55.752;37.884;2024-01-30T08:14:30;100061.22;;;30.88;24.45
54816;BME280;40715;55.752;37.884;2024-01-30T08:16:57;100068.69;;;30.86;24.18
54816;BME280;40715;55.752;37.884;2024-01-30T08:19:27;100065.81;;;30.87;24.02
54816;BME280;40715;55.752;37.884;2024-01-30T08:21:54;100062.06;;;30.88;23.56
54816;BME280;40715;55.752;37.884;2024-01-30T08:24:21;100054.94;;;30.87;23.62
54816;BME280;40715;55.752;37.884;2024-01-30T08:26:47;100053.38;;;30.85;23.52
54816;BME280;40715;55.752;37.884;2024-01-30T08:29:14;100063.38;;;30.84;23.62
54816;BME280;40715;55.752;37.884;2024-01-30T08:31:42;100056.25;;;30.83;23.98
54816;BME280;40715;55.752;37.884;2024-01-30T08:34:09;100058.09;;;30.83;23.58
54816;BME280;40715;55.752;37.884;2024-01-30T08:36:36;100052.97;;;30.79;23.82
54816;BME280;40715;55.752;37.884;2024-01-30T08:39:03;100056.25;;;30.83;23.52
54816;BME280;40715;55.752;37.884;2024-01-30T08:41:31;100062.22;;;30.87;23.84
54816;BME280;40715;55.752;37.884;2024-01-30T08:43:59;100059.81;;;30.84;23.84
54816;BME280;40715;55.752;37.884;2024-01-30T08:46:26;100058.97;;;30.83;23.58
54816;BME280;40715;55.752;37.884;2024-01-30T08:48:53;100058.25;;;30.81;23.85
54816;BME280;40715;55.752;37.884;2024-01-30T08:51:20;100058.25;;;30.81;23.47
54816;BME280;40715;55.752;37.884;2024-01-30T08:53:47;100059.28;;;30.80;23.77
54816;BME280;40715;55.752;37.884;2024-01-30T08:56:14;100048.41;;;30.80;23.76
54816;BME280;40715;55.752;37.884;2024-01-30T08:58:43;100034.63;;;30.81;23.58
54816;BME280;40715;55.752;37.884;2024-01-30T09:01:10;100033.59;;;30.83;23.70
54816;BME280;40715;55.752;37.884;2024-01-30T09:03:37;100035.47;;;30.82;23.31
54816;BME280;40715;55.752;37.884;2024-01-30T09:06:10;100067.44;;;30.80;23.44
54816;BME280;40715;55.752;37.884;2024-01-30T09:08:37;100056.25;;;30.83;23.44
54816;BME280;40715;55.752;37.884;2024-01-30T09:11:14;100063.53;;;30.83;23.20
54816;BME280;40715;55.752;37.884;2024-01-30T09:13:41;100077.44;;;30.79;23.51
54816;BME280;40715;55.752;37.884;2024-01-30T09:16:08;100071.47;;;30.76;23.21
54816;BME280;40715;55.752;37.884;2024-01-30T09:18:36;100063.16;;;30.77;23.19
54816;BME280;40715;55.752;37.884;2024-01-30T09:21:03;100062.84;;;30.80;23.43
54816;BME280;40715;55.752;37.884;2024-01-30T09:23:30;100067.44;;;30.80;23.50
54816;BME280;40715;55.752;37.884;2024-01-30T09:25:57;100060.13;;;30.80;23.32
54816;BME280;40715;55.752;37.884;2024-01-30T09:28:24;100064.72;;;30.80;23.38
54816;BME280;40715;55.752;37.884;2024-01-30T09:30:53;100047.53;;;30.79;22.92
54816;BME280;40715;55.752;37.884;2024-01-30T09:33:20;100051.97;;;30.80;23.02
54816;BME280;40715;55.752;37.884;2024-01-30T09:35:47;100051.97;;;30.80;22.83
54816;BME280;40715;55.752;37.884;2024-01-30T09:38:14;100051.81;;;30.82;22.71
54816;BME280;40715;55.752;37.884;2024-01-30T09:40:41;100043.97;;;30.79;23.07
54816;BME280;40715;55.752;37.884;2024-01-30T09:43:13;100044.81;;;30.79;23.11
54816;BME280;40715;55.752;37.884;2024-01-30T09:45:44;100044.81;;;30.79;22.95
54816;BME280;40715;55.752;37.884;2024-01-30T09:48:12;100043.81;;;30.80;23.17
54816;BME280;40715;55.752;37.884;2024-01-30T09:50:39;100048.41;;;30.80;22.66
54816;BME280;40715;55.752;37.884;2024-01-30T09:53:08;100049.41;;;30.79;22.78
54816;BME280;40715;55.752;37.884;2024-01-30T09:55:35;100046.38;;;30.82;22.93
54816;BME280;40715;55.752;37.884;2024-01-30T09:58:03;100048.25;;;30.81;22.80
54816;BME280;40715;55.752;37.884;2024-01-30T10:00:30;100047.19;;;30.83;22.97
54816;BME280;40715;55.752;37.884;2024-01-30T10:02:57;100040.25;;;30.80;23.02
54816;BME280;40715;55.752;37.884;2024-01-30T10:05:27;100030.53;;;30.77;23.07
54816;BME280;40715;55.752;37.884;2024-01-30T10:07:56;100042.09;;;30.79;22.62
54816;BME280;40715;55.752;37.884;2024-01-30T10:10:24;100052.81;;;30.81;22.74
54816;BME280;40715;55.752;37.884;2024-01-30T10:12:51;100054.53;;;30.82;22.79
54816;BME280;40715;55.752;37.884;2024-01-30T10:15:18;100058.09;;;30.83;22.62
54816;BME280;40715;55.752;37.884;2024-01-30T10:17:46;100048.56;;;30.78;23.00
54816;BME280;40715;55.752;37.884;2024-01-30T10:20:13;100063.38;;;30.84;22.58
54816;BME280;40715;55.752;37.884;2024-01-30T10:22:41;100057.41;;;30.80;22.72
54816;BME280;40715;55.752;37.884;2024-01-30T10:25:14;100064.94;;;30.87;22.47
54816;BME280;40715;55.752;37.884;2024-01-30T10:27:43;100063.94;;;30.88;23.03
54816;BME280;40715;55.752;37.884;2024-01-30T10:30:10;100069.22;;;30.89;22.72
54816;BME280;40715;55.752;37.884;2024-01-30T10:32:37;100054.75;;;30.89;22.99
54816;BME280;40715;55.752;37.884;2024-01-30T10:35:04;100051.00;;;30.90;22.82
54816;BME280;40715;55.752;37.884;2024-01-30T10:37:31;100047.44;;;30.89;22.49
54816;BME280;40715;55.752;37.884;2024-01-30T10:40:02;100044.72;;;30.89;22.59
54816;BME280;40715;55.752;37.884;2024-01-30T10:42:32;100039.28;;;30.89;22.62
54816;BME280;40715;55.752;37.884;2024-01-30T10:45:05;100039.44;;;30.88;22.53
54816;BME280;40715;55.752;37.884;2024-01-30T10:47:42;100045.72;;;30.88;22.56
54816;BME280;40715;55.752;37.884;2024-01-30T10:50:10;100043.00;;;30.88;22.47
54816;BME280;40715;55.752;37.884;2024-01-30T10:52:38;100045.03;;;30.86;22.64
54816;BME280;40715;55.752;37.884;2024-01-30T10:55:06;100045.88;;;30.87;22.64
54816;BME280;40715;55.752;37.884;2024-01-30T10:57:35;100048.28;;;30.90;22.76
54816;BME280;40715;55.752;37.884;2024-01-30T11:00:08;100053.03;;;30.88;22.80
54816;BME280;40715;55.752;37.884;2024-01-30T11:02:43;100059.88;;;30.92;22.64
54816;BME280;40715;55.752;37.884;2024-01-30T11:05:13;100055.44;;;30.91;22.49
54816;BME280;40715;55.752;37.884;2024-01-30T11:07:42;100068.22;;;30.90;22.79
54816;BME280;40715;55.752;37.884;2024-01-30T11:10:11;100053.38;;;30.85;22.47
54816;BME280;40715;55.752;37.884;2024-01-30T11:12:46;100057.47;;;30.89;22.58
54816;BME280;40715;55.752;37.884;2024-01-30T11:15:15;100049.78;;;30.84;22.22
54816;BME280;40715;55.752;37.884;2024-01-30T11:17:50;100043.88;;;30.89;22.51
54816;BME280;40715;55.752;37.884;2024-01-30T11:20:22;100047.09;;;31.46;22.18
54816;BME280;40715;55.752;37.884;2024-01-30T11:22:51;100052.88;;;30.89;22.32
54816;BME280;40715;55.752;37.884;2024-01-30T11:25:20;100058.09;;;30.83;22.34
54816;BME280;40715;55.752;37.884;2024-01-30T11:27:50;100051.97;;;30.80;22.26
54816;BME280;40715;55.752;37.884;2024-01-30T11:30:28;100070.16;;;30.80;22.54
54816;BME280;40715;55.752;37.884;2024-01-30T11:33:06;100064.56;;;30.81;22.42
54816;BME280;40715;55.752;37.884;2024-01-30T11:35:36;100068.97;;;30.83;22.65
54816;BME280;40715;55.752;37.884;2024-01-30T11:38:04;100066.03;;;30.76;22.21
54816;BME280;40715;55.752;37.884;2024-01-30T11:40:33;100066.72;;;30.78;22.34
54816;BME280;40715;55.752;37.884;2024-01-30T11:43:02;100074.56;;;30.81;22.22
54816;BME280;40715;55.752;37.884;2024-01-30T11:45:32;100079.84;;;30.83;22.22
54816;BME280;40715;55.752;37.884;2024-01-30T11:47:59;100068.28;;;30.80;22.14
54816;BME280;40715;55.752;37.884;2024-01-30T11:50:34;100083.28;;;30.85;22.40
54816;BME280;40715;55.752;37.884;2024-01-30T11:53:01;100084.69;;;30.89;22.11
54816;BME280;40715;55.752;37.884;2024-01-30T11:55:29;100074.97;;;30.86;22.34
54816;BME280;40715;55.752;37.884;2024-01-30T11:57:59;100094.69;;;30.88;22.43
54816;BME280;40715;55.752;37.884;2024-01-30T12:00:27;100100.13;;;30.88;22.38
54816;BME280;40715;55.752;37.884;2024-01-30T12:02:55;100089.19;;;30.80;22.15
54816;BME280;40715;55.752;37.884;2024-01-30T12:05:28;100103.00;;;30.87;22.27
54816;BME280;40715;55.752;37.884;2024-01-30T12:07:58;100101.16;;;30.87;22.34
54816;BME280;40715;55.752;37.884;2024-01-30T12:10:26;100108.44;;;30.87;22.46
54816;BME280;40715;55.752;37.884;2024-01-30T12:12:54;100106.75;;;30.86;22.06
54816;BME280;40715;55.752;37.884;2024-01-30T12:15:27;100104.88;;;30.86;21.92
54816;BME280;40715;55.752;37.884;2024-01-30T12:18:04;100092.44;;;30.84;22.40
54816;BME280;40715;55.752;37.884;2024-01-30T12:20:57;100098.13;;;30.90;22.31
54816;BME280;40715;55.752;37.884;2024-01-30T12:23:26;100099.44;;;30.86;22.01
54816;BME280;40715;55.752;37.884;2024-01-30T12:25:53;100104.88;;;30.86;21.94
54816;BME280;40715;55.752;37.884;2024-01-30T12:28:21;100112.34;;;30.84;22.29
54816;BME280;40715;55.752;37.884;2024-01-30T12:30:48;100098.59;;;30.86;22.35
54816;BME280;40715;55.752;37.884;2024-01-30T12:33:16;100104.31;;;30.83;22.28
54816;BME280;40715;55.752;37.884;2024-01-30T12:35:48;100109.75;;;30.83;22.17
54816;BME280;40715;55.752;37.884;2024-01-30T12:38:21;100108.13;;;30.90;22.01
54816;BME280;40715;55.752;37.884;2024-01-30T12:40:48;100098.59;;;30.86;22.24
54816;BME280;40715;55.752;37.884;2024-01-30T12:43:15;100102.00;;;30.88;22.06
54816;BME280;40715;55.752;37.884;2024-01-30T12:45:50;100107.59;;;30.86;22.32
54816;BME280;40715;55.752;37.884;2024-01-30T12:48:17;100103.16;;;30.85;22.06